createdAt,value
2023-04-11T00:02:28.232Z,0.82
2023-04-11T00:05:03.727Z,0.98
2023-04-11T00:07:31.316Z,0.65
2023-04-11T00:10:28.401Z,0.70
2023-04-11T00:13:04.106Z,1.77
2023-04-11T00:15:39.881Z,1.17
2023-04-11T00:18:07.836Z,1.55
2023-04-11T00:20:38.775Z,2.35
2023-04-11T00:23:08.933Z,2.85
2023-04-11T00:25:39.630Z,2.58
2023-04-11T00:28:13.006Z,3.55
2023-04-11T00:30:40.283Z,3.70
2023-04-11T00:33:16.207Z,3.45
2023-04-11T00:35:46.075Z,4.10
2023-04-11T00:38:35.357Z,3.60
2023-04-11T00:41:19.388Z,3.85
2023-04-11T00:43:47.312Z,3.90
2023-04-11T00:46:24.440Z,2.75
2023-04-11T00:48:58.021Z,3.00
2023-04-11T00:51:35.983Z,3.22
2023-04-11T00:54:30.753Z,3.17
2023-04-11T00:57:13.233Z,3.10
2023-04-11T00:59:47.529Z,3.58
2023-04-11T01:02:31.684Z,3.65
2023-04-11T01:05:08.502Z,4.05
2023-04-11T01:07:46.075Z,3.58
2023-04-11T01:10:32.305Z,3.03
2023-04-11T01:13:03.004Z,3.15
2023-04-11T01:15:34.154Z,3.55
2023-04-11T01:18:08.206Z,3.42
2023-04-11T01:20:38.840Z,3.13
2023-04-11T01:23:13.474Z,3.47
2023-04-11T01:25:43.297Z,3.58
2023-04-11T01:28:26.477Z,3.67
2023-04-11T01:31:07.608Z,2.45
2023-04-11T01:33:43.718Z,2.65
2023-04-11T01:36:20.657Z,3.15
2023-04-11T01:38:51.424Z,3.38
2023-04-11T01:41:21.126Z,2.17
2023-04-11T01:43:58.792Z,1.98
2023-04-11T01:46:41.860Z,2.40
2023-04-11T01:49:20.520Z,2.88
2023-04-11T01:51:56.369Z,2.10
2023-04-11T01:54:38.603Z,2.83
2023-04-11T01:57:13.611Z,2.88
2023-04-11T01:59:44.695Z,2.65
2023-04-11T02:02:18.145Z,2.67
2023-04-11T02:04:54.887Z,2.70
2023-04-11T02:07:22.047Z,2.78
2023-04-11T02:09:49.662Z,3.03
2023-04-11T02:12:19.292Z,2.22
2023-04-11T02:14:46.640Z,3.97
2023-04-11T02:17:15.838Z,2.47
2023-04-11T02:19:46.728Z,2.28
2023-04-11T02:22:19.150Z,2.50
2023-04-11T02:24:57.100Z,1.58
2023-04-11T02:27:26.069Z,2.50
2023-04-11T02:29:55.031Z,2.30
2023-04-11T02:32:22.687Z,2.13
2023-04-11T02:34:53.809Z,2.00
2023-04-11T02:37:20.934Z,2.28
2023-04-11T02:39:51.405Z,2.05
2023-04-11T02:42:38.166Z,3.63
2023-04-11T02:45:15.384Z,2.47
2023-04-11T02:48:05.594Z,2.28
2023-04-11T02:50:46.202Z,2.20
2023-04-11T02:53:21.743Z,1.85
2023-04-11T02:56:22.846Z,1.10
2023-04-11T02:58:59.827Z,1.30
2023-04-11T03:01:42.162Z,0.88
2023-04-11T03:04:22.121Z,1.10
2023-04-11T03:06:57.535Z,1.48
2023-04-11T03:09:24.849Z,1.20
2023-04-11T03:11:52.270Z,1.15
2023-04-11T03:14:28.571Z,1.50
2023-04-11T03:17:01.289Z,1.52
2023-04-11T03:19:32.078Z,1.00
2023-04-11T03:22:01.934Z,0.82
2023-04-11T03:24:37.791Z,1.15
2023-04-11T03:29:50.958Z,1.58
2023-04-11T03:32:26.843Z,1.90
2023-04-11T03:34:59.822Z,1.85
2023-04-11T03:37:31.766Z,2.13
2023-04-11T03:40:02.142Z,1.33
2023-04-11T03:42:32.061Z,1.83
2023-04-11T03:45:04.617Z,2.08
2023-04-11T03:47:36.425Z,1.85
2023-04-11T03:50:06.463Z,1.40
2023-04-11T03:52:48.889Z,2.38
2023-04-11T03:55:29.241Z,1.75
2023-04-11T03:58:04.891Z,1.10
2023-04-11T04:00:32.434Z,1.85
2023-04-11T04:03:11.336Z,2.15
2023-04-11T04:05:49.775Z,1.70
2023-04-11T04:08:18.100Z,2.03
2023-04-11T04:10:48.500Z,1.25
2023-04-11T04:13:19.362Z,0.90
2023-04-11T04:16:11.479Z,1.30
2023-04-11T04:18:41.869Z,1.30
2023-04-11T04:21:12.413Z,1.33
2023-04-11T04:23:51.143Z,0.60
2023-04-11T04:26:32.090Z,1.05
2023-04-11T04:29:53.510Z,0.98
2023-04-11T04:32:34.780Z,1.10
2023-04-11T04:35:32.854Z,1.70
2023-04-11T04:38:08.630Z,1.02
2023-04-11T04:41:07.818Z,1.02
2023-04-11T04:43:43.394Z,1.00
2023-04-11T04:46:14.936Z,0.88
2023-04-11T04:48:55.328Z,0.80
2023-04-11T04:51:36.169Z,0.88
2023-04-11T04:54:12.140Z,1.27
2023-04-11T04:56:45.457Z,0.60
2023-04-11T04:59:33.018Z,1.00
2023-04-11T05:02:12.455Z,1.17
2023-04-11T05:04:42.197Z,1.08
2023-04-11T05:07:35.962Z,0.80
2023-04-11T05:10:07.327Z,0.90
2023-04-11T05:12:43.468Z,0.98
2023-04-11T05:15:23.664Z,0.70
2023-04-11T05:17:53.622Z,0.60
2023-04-11T05:20:22.184Z,0.77
2023-04-11T05:22:53.818Z,1.63
2023-04-11T05:25:24.972Z,0.93
2023-04-11T05:27:56.237Z,0.70
2023-04-11T05:30:34.172Z,0.50
2023-04-11T05:33:16.881Z,1.05
2023-04-11T05:35:44.911Z,0.98
2023-04-11T05:38:15.698Z,0.50
2023-04-11T05:40:51.560Z,0.95
2023-04-11T05:43:22.417Z,0.52
2023-04-11T05:46:04.397Z,0.52
2023-04-11T05:48:50.428Z,0.40
2023-04-11T05:51:20.275Z,0.70
2023-04-11T05:54:19.441Z,1.52
2023-04-11T05:56:48.622Z,0.52
2023-04-11T05:59:34.774Z,0.57
2023-04-11T06:02:11.774Z,0.98
2023-04-11T06:04:53.173Z,0.60
2023-04-11T06:07:21.553Z,0.50
2023-04-11T06:09:49.221Z,0.60
2023-04-11T06:12:31.606Z,0.40
2023-04-11T06:15:06.410Z,0.85
2023-04-11T06:17:35.389Z,0.40
2023-04-11T06:20:10.171Z,0.40
2023-04-11T06:22:40.117Z,0.70
2023-04-11T06:25:20.980Z,1.40
2023-04-11T06:28:11.786Z,1.00
2023-04-11T06:30:40.751Z,0.40
2023-04-11T06:33:32.809Z,0.32
2023-04-11T06:36:10.035Z,0.68
2023-04-11T06:38:42.591Z,0.90
2023-04-11T06:41:34.699Z,0.60
2023-04-11T06:44:16.809Z,1.33
2023-04-11T06:46:46.716Z,0.75
2023-04-11T06:49:35.216Z,1.05
2023-04-11T06:57:40.042Z,0.85
2023-04-11T07:00:18.114Z,0.88
2023-04-11T07:03:12.858Z,1.10
2023-04-11T07:05:49.330Z,0.60
2023-04-11T07:08:40.099Z,1.55
2023-04-11T07:11:26.205Z,0.55
2023-04-11T07:14:06.576Z,1.50
2023-04-11T07:16:41.293Z,0.95
2023-04-11T07:19:29.086Z,0.73
2023-04-11T07:25:05.702Z,1.17
2023-04-11T07:27:49.828Z,1.00
2023-04-11T07:39:21.418Z,1.15
2023-04-11T07:41:48.717Z,1.33
2023-04-11T07:49:42.927Z,1.45
2023-04-11T07:52:38.585Z,0.93
2023-04-11T07:56:18.518Z,1.05
2023-04-11T08:06:44.866Z,1.10
2023-04-11T08:13:22.489Z,0.52
2023-04-11T08:15:51.253Z,0.70
2023-04-11T08:18:27.796Z,0.77
2023-04-11T08:22:22.864Z,1.80
2023-04-11T08:24:53.148Z,0.75
2023-04-11T08:27:28.058Z,1.02
2023-04-11T08:30:30.079Z,0.85
2023-04-11T08:33:12.647Z,0.60
2023-04-11T08:35:58.500Z,0.65
2023-04-11T08:38:34.130Z,0.98
2023-04-11T08:41:18.172Z,0.63
2023-04-11T08:43:59.276Z,0.82
2023-04-11T08:46:26.987Z,0.57
2023-04-11T08:49:02.784Z,0.63
2023-04-11T08:52:03.602Z,0.77
2023-04-11T08:54:35.073Z,0.68
2023-04-11T08:57:05.311Z,2.00
2023-04-11T08:59:46.929Z,0.70
2023-04-11T09:02:17.096Z,0.80
2023-04-11T09:04:53.140Z,0.50
2023-04-11T09:07:24.979Z,0.98
2023-04-11T09:09:52.448Z,1.15
2023-04-11T09:13:08.809Z,0.60
2023-04-11T09:15:43.606Z,0.68
2023-04-11T09:18:11.121Z,1.15
2023-04-11T09:20:38.322Z,0.50
2023-04-11T09:23:05.391Z,0.63
2023-04-11T09:25:44.521Z,0.90
2023-04-11T09:28:11.706Z,0.95
2023-04-11T09:30:38.857Z,0.90
2023-04-11T09:33:23.942Z,0.73
2023-04-11T09:35:53.697Z,0.95
2023-04-11T09:38:34.181Z,0.70
2023-04-11T09:41:03.032Z,0.75
2023-04-11T09:43:56.071Z,1.35
2023-04-11T09:46:23.646Z,1.25
2023-04-11T09:49:15.370Z,0.60
2023-04-11T09:51:42.051Z,0.50
2023-04-11T09:54:12.168Z,0.60
2023-04-11T09:56:43.146Z,1.08
2023-04-11T09:59:29.340Z,0.95
2023-04-11T10:02:01.871Z,1.08
2023-04-11T10:04:41.127Z,0.70
2023-04-11T10:07:19.432Z,0.50
2023-04-11T10:09:47.921Z,0.98
2023-04-11T10:12:31.723Z,0.55
2023-04-11T10:15:05.713Z,0.45
2023-04-11T10:17:33.498Z,0.70
2023-04-11T10:20:00.864Z,0.30
2023-04-11T10:22:44.068Z,0.30
2023-04-11T10:25:24.692Z,0.50
2023-04-11T10:28:29.067Z,0.40
2023-04-11T10:31:13.251Z,0.60
2023-04-11T10:34:01.388Z,0.50
2023-04-11T10:36:48.382Z,0.40
2023-04-11T10:39:15.962Z,0.60
2023-04-11T10:41:43.053Z,0.40
2023-04-11T10:44:24.986Z,0.63
2023-04-11T10:46:54.476Z,0.65
2023-04-11T10:49:40.869Z,0.40
2023-04-11T10:52:18.994Z,0.52
2023-04-11T10:54:47.023Z,0.40
2023-04-11T10:57:14.644Z,0.28
2023-04-11T10:59:44.737Z,0.30
2023-04-11T11:02:13.767Z,0.38
2023-04-11T11:04:41.169Z,0.47
2023-04-11T11:21:00.500Z,0.65
2023-04-11T11:24:39.317Z,0.88
2023-04-11T11:27:57.917Z,0.35
2023-04-11T11:52:12.348Z,0.73
2023-04-11T11:58:54.603Z,0.50
2023-04-11T12:05:28.538Z,0.50
2023-04-11T12:07:56.547Z,1.05
2023-04-11T12:10:23.692Z,0.35
2023-04-11T12:12:54.062Z,0.90
2023-04-11T12:15:23.996Z,0.70
2023-04-11T12:17:55.255Z,0.32
2023-04-11T12:20:24.337Z,0.80
2023-04-11T12:22:54.151Z,0.68
2023-04-11T12:25:30.346Z,0.65
2023-04-11T12:28:01.018Z,0.47
2023-04-11T12:30:40.565Z,0.68
2023-04-11T12:33:13.496Z,0.38
2023-04-11T12:35:40.789Z,0.75
2023-04-11T12:38:44.827Z,0.75
2023-04-11T12:41:31.466Z,0.40
2023-04-11T12:44:02.409Z,0.50
2023-04-11T12:46:30.080Z,0.50
2023-04-11T12:49:06.440Z,0.60
2023-04-11T12:52:05.950Z,0.40
2023-04-11T13:08:35.570Z,0.70
2023-04-11T13:11:47.623Z,0.43
2023-04-11T13:15:12.812Z,0.65
2023-04-11T13:17:45.805Z,0.57
2023-04-11T13:20:15.983Z,0.50
2023-04-11T13:22:43.603Z,0.63
2023-04-11T13:25:13.795Z,0.55
2023-04-11T13:27:42.105Z,0.60
2023-04-11T13:30:17.872Z,0.95
2023-04-11T13:34:08.220Z,0.50
2023-04-11T13:41:54.037Z,0.47
2023-04-11T13:44:22.804Z,0.50
2023-04-11T13:46:50.080Z,0.43
2023-04-11T13:49:26.571Z,0.60
2023-04-11T13:51:53.658Z,0.55
2023-04-11T14:05:02.078Z,0.40
2023-04-11T14:07:31.975Z,0.40
2023-04-11T14:10:00.117Z,0.50
2023-04-11T14:12:29.520Z,0.38
2023-04-11T14:14:56.669Z,0.40
2023-04-11T14:17:23.883Z,0.50
2023-04-11T14:19:51.185Z,0.43
2023-04-11T14:22:18.504Z,0.98
2023-04-11T14:24:45.764Z,0.47
2023-04-11T14:27:15.545Z,0.65
2023-04-11T14:29:42.786Z,0.60
2023-04-11T14:32:13.210Z,0.77
2023-04-11T14:34:43.369Z,0.45
2023-04-11T14:37:10.639Z,0.50
2023-04-11T14:39:39.970Z,0.98
2023-04-11T14:42:07.280Z,0.40
2023-04-11T14:44:35.568Z,0.30
2023-04-11T14:47:02.718Z,0.40
2023-04-11T14:49:29.906Z,0.30
2023-04-11T14:51:56.973Z,0.60
2023-04-11T14:54:24.980Z,0.45
2023-04-11T14:56:54.648Z,0.65
2023-04-11T14:59:22.114Z,0.93
2023-04-11T15:01:49.380Z,0.45
2023-04-11T15:04:16.796Z,0.57
2023-04-11T15:06:44.345Z,0.70
2023-04-11T15:09:11.782Z,0.38
2023-04-11T15:11:38.955Z,0.93
2023-04-11T15:14:13.643Z,0.60
2023-04-11T15:16:43.504Z,0.52
2023-04-11T15:19:14.042Z,0.60
2023-04-11T15:21:41.449Z,0.30
2023-04-11T15:24:17.155Z,0.40
2023-04-11T15:26:47.324Z,0.40
2023-04-11T15:29:23.472Z,0.20
2023-04-11T15:31:50.459Z,0.32
2023-04-11T15:34:23.329Z,0.30
2023-04-11T15:36:50.608Z,0.98
2023-04-11T15:39:17.582Z,0.30
2023-04-11T15:41:44.667Z,0.30
2023-04-11T15:44:11.906Z,0.40
2023-04-11T15:46:39.733Z,0.28
2023-04-11T15:49:06.769Z,0.20
2023-04-11T15:51:33.657Z,0.55
2023-04-11T15:54:00.645Z,0.25
2023-04-11T15:56:30.942Z,0.60
2023-04-11T15:58:57.968Z,0.32
2023-04-11T16:01:25.737Z,0.30
2023-04-11T16:03:54.160Z,0.40
2023-04-11T16:06:22.491Z,0.40
2023-04-11T16:08:49.614Z,0.43
2023-04-11T16:11:16.777Z,0.30
2023-04-11T16:13:44.197Z,0.30
2023-04-11T16:16:11.675Z,0.40
2023-04-11T16:18:45.878Z,0.43
2023-04-11T16:21:15.774Z,0.40
2023-04-11T16:23:43.502Z,0.25
2023-04-11T16:26:12.932Z,0.40
2023-04-11T16:28:40.091Z,0.35
2023-04-11T16:31:09.945Z,0.30
2023-04-11T16:33:36.940Z,0.20
2023-04-11T16:36:04.701Z,0.32
2023-04-11T16:38:32.084Z,0.47
2023-04-11T16:41:03.599Z,1.35
2023-04-11T16:43:30.752Z,0.68
2023-04-11T16:45:57.964Z,0.52
2023-04-11T16:48:25.210Z,0.30
2023-04-11T16:50:52.639Z,0.40
2023-04-11T16:53:20.153Z,0.60
2023-04-11T16:55:47.130Z,0.57
2023-04-11T16:58:14.125Z,0.32
2023-04-11T17:00:45.508Z,0.57
2023-04-11T17:11:43.919Z,0.43
2023-04-11T17:14:18.649Z,0.47
2023-04-11T17:16:46.861Z,0.38
2023-04-11T17:19:14.179Z,0.57
2023-04-11T17:21:41.390Z,0.50
2023-04-11T17:24:08.461Z,0.50
2023-04-11T17:26:36.123Z,0.40
2023-04-11T17:29:03.482Z,0.30
2023-04-11T17:31:31.931Z,0.40
2023-04-11T17:34:04.116Z,0.28
2023-04-11T17:36:42.646Z,0.35
2023-04-11T17:39:11.525Z,0.30
2023-04-11T17:41:38.830Z,0.50
2023-04-11T17:44:06.240Z,0.40
2023-04-11T17:46:33.632Z,0.28
2023-04-11T17:49:00.979Z,0.30
2023-04-11T17:51:28.948Z,0.30
2023-04-11T17:53:58.061Z,0.22
2023-04-11T17:56:25.636Z,0.30
2023-04-11T18:01:48.571Z,0.32
2023-04-11T18:04:16.171Z,0.38
2023-04-11T18:06:46.132Z,0.20
2023-04-11T18:09:16.102Z,0.10
2023-04-11T18:11:54.999Z,0.10
2023-04-11T18:14:23.697Z,0.30
2023-04-11T18:17:46.285Z,0.10
2023-04-11T18:21:11.715Z,0.10
2023-04-11T18:28:13.328Z,0.10
2023-04-11T18:30:40.425Z,0.10
2023-04-11T18:33:08.200Z,0.10
2023-04-11T18:35:35.246Z,0.10
2023-04-11T18:38:06.217Z,0.10
2023-04-11T18:40:36.784Z,0.20
2023-04-11T18:43:08.292Z,0.10
2023-04-11T18:45:45.212Z,0.10
2023-04-11T18:49:16.353Z,0.10
2023-04-11T18:53:04.771Z,0.20
2023-04-11T18:55:50.885Z,0.10
2023-04-11T18:59:55.726Z,0.10
2023-04-11T19:02:46.058Z,0.20
2023-04-11T19:05:36.090Z,0.40
2023-04-11T19:13:22.092Z,0.20
2023-04-11T19:20:29.876Z,0.20
2023-04-11T19:28:48.618Z,0.10
2023-04-11T19:32:02.548Z,0.20
2023-04-11T19:48:36.690Z,0.20
2023-04-11T19:51:38.484Z,0.28
2023-04-11T19:54:23.245Z,0.17
2023-04-11T19:57:20.309Z,0.30
2023-04-11T19:59:52.072Z,0.28
2023-04-11T20:02:28.231Z,0.20
2023-04-11T20:04:58.509Z,0.20
2023-04-11T20:07:25.590Z,0.30
2023-04-11T20:09:52.702Z,0.20
2023-04-11T20:12:20.199Z,0.50
2023-04-11T20:14:47.440Z,0.20
2023-04-11T20:17:34.315Z,0.20
2023-04-11T20:20:15.644Z,0.17
2023-04-11T20:22:45.429Z,0.20
2023-04-11T20:25:15.709Z,0.20
2023-04-11T20:27:43.844Z,0.22
2023-04-11T20:30:15.909Z,0.32
2023-04-11T20:32:44.402Z,0.20
2023-04-11T20:35:21.657Z,0.40
2023-04-11T20:37:51.700Z,0.20
2023-04-11T20:40:18.910Z,0.43
2023-04-11T20:42:47.684Z,0.30
2023-04-11T20:45:43.185Z,0.40
2023-04-11T20:48:13.074Z,0.22
2023-04-11T20:50:57.605Z,0.20
2023-04-11T20:56:40.706Z,0.70
2023-04-11T20:59:42.853Z,0.22
2023-04-11T21:02:15.806Z,0.20
2023-04-11T21:04:43.397Z,0.25
2023-04-11T21:07:10.739Z,0.57
2023-04-11T21:09:37.829Z,0.25
2023-04-11T21:12:15.611Z,0.28
2023-04-11T21:14:42.833Z,0.30
2023-04-11T21:17:42.025Z,0.40
2023-04-11T21:23:05.538Z,0.22
2023-04-11T21:25:35.238Z,0.28
2023-04-11T21:31:44.254Z,0.20
2023-04-11T21:34:11.771Z,0.10
2023-04-11T21:36:41.353Z,0.20
2023-04-11T21:39:09.030Z,0.20
2023-04-11T21:41:38.987Z,0.20
2023-04-11T21:44:12.457Z,0.20
2023-04-11T21:46:50.029Z,0.10
2023-04-11T21:49:21.168Z,0.10
2023-04-11T21:51:48.425Z,0.43
2023-04-11T21:54:16.184Z,0.20
2023-04-11T21:56:44.707Z,0.20
2023-04-11T21:59:11.969Z,0.30
2023-04-11T22:01:39.227Z,0.20
2023-04-11T22:04:10.609Z,0.30
2023-04-11T22:06:47.803Z,0.10
2023-04-11T22:09:30.356Z,0.10
2023-04-11T22:18:56.396Z,0.30
2023-04-11T22:21:48.697Z,0.10
2023-04-11T22:24:31.089Z,0.10
2023-04-11T22:27:04.347Z,0.10
2023-04-11T22:29:31.999Z,0.20
2023-04-11T22:32:03.924Z,0.20
2023-04-11T22:34:41.302Z,0.20
2023-04-11T22:37:08.423Z,0.40
2023-04-11T22:39:36.376Z,0.30
2023-04-11T22:42:03.646Z,0.20
2023-04-11T22:44:34.480Z,0.32
2023-04-11T22:47:06.750Z,0.30
2023-04-11T22:52:34.272Z,0.28
2023-04-11T22:55:05.128Z,0.30
2023-04-11T22:57:32.262Z,0.20
2023-04-11T23:00:02.311Z,0.40
2023-04-11T23:02:31.881Z,0.50
2023-04-11T23:05:03.736Z,0.55
2023-04-11T23:07:34.684Z,1.35
2023-04-11T23:10:02.923Z,0.55
2023-04-11T23:12:30.233Z,0.35
2023-04-11T23:15:01.161Z,1.05
2023-04-11T23:17:28.881Z,0.30
2023-04-11T23:20:01.506Z,0.80
2023-04-11T23:22:28.866Z,0.60
2023-04-11T23:24:55.817Z,0.82
2023-04-11T23:27:23.639Z,0.65
2023-04-11T23:29:54.330Z,0.50
2023-04-11T23:32:22.305Z,0.40
2023-04-11T23:34:49.321Z,0.40
2023-04-11T23:37:16.701Z,0.30
2023-04-11T23:39:43.740Z,0.40
2023-04-11T23:42:11.073Z,0.80
2023-04-11T23:44:38.095Z,0.35
2023-04-11T23:47:05.095Z,0.40
2023-04-11T23:49:32.308Z,0.40
2023-04-11T23:51:59.304Z,0.40
2023-04-11T23:54:30.290Z,0.47
2023-04-11T23:56:58.552Z,0.50
2023-04-11T23:59:25.680Z,0.40
